Time;durP1;ratioP1;P1;durP2;ratioP2;P2;SDS_P1;SDS_P2;PMS_P1;PMS_P2;Temp;Humidity;BMP_temperature;BMP_pressure;BME280_temperature;BME280_humidity;BME280_pressure;Samples;Min_cycle;Max_cycle;Signal;HPM_P1;HPM_P2
2024/04/12 00:01:40;;;;;;;12.25;7.10;;;;;;;;;;5414858;26;20581;-57
2024/04/12 00:04:08;;;;;;;12.20;7.07;;;;;;;;;;5414912;26;20003;-59
2024/04/12 00:06:37;;;;;;;12.60;7.30;;;;;;;;;;5383517;26;20413;-57
2024/04/12 00:09:09;;;;;;;12.35;7.20;;;;;;;;;;5414868;26;20010;-58
2024/04/12 00:11:38;;;;;;;12.30;7.20;;;;;;;;;;5415160;26;20003;-58
2024/04/12 00:14:04;;;;;;;12.30;7.10;;;;;;;;;;5415336;26;20002;-57
2024/04/12 00:16:30;;;;;;;12.18;7.13;;;;;;;;;;5414810;26;20006;-56
2024/04/12 00:19:12;;;;;;;12.20;7.10;;;;;;;;;;5414756;26;20003;-58
2024/04/12 00:21:41;;;;;;;12.27;7.10;;;;;;;;;;5414804;26;20002;-57
2024/04/12 00:24:11;;;;;;;12.45;7.28;;;;;;;;;;5383104;26;19992;-57
2024/04/12 00:26:43;;;;;;;11.90;6.97;;;;;;;;;;5414738;26;20517;-57
2024/04/12 00:29:22;;;;;;;12.05;7.03;;;;;;;;;;5414677;26;19995;-59
2024/04/12 00:31:52;;;;;;;12.27;7.15;;;;;;;;;;5414391;26;19992;-59
2024/04/12 00:34:18;;;;;;;12.25;7.10;;;;;;;;;;5414185;26;20004;-58
2024/04/12 00:36:44;;;;;;;12.40;7.20;;;;;;;;;;5414817;26;20366;-59
2024/04/12 00:39:35;;;;;;;12.30;7.10;;;;;;;;;;5414192;26;20002;-59
2024/04/12 00:41:59;;;;;;;12.10;7.10;;;;;;;;;;5414456;26;20439;-54
2024/04/12 00:44:29;;;;;;;12.50;7.40;;;;;;;;;;5414692;26;20003;-58
2024/04/12 00:46:56;;;;;;;12.73;7.47;;;;;;;;;;5413974;26;20010;-56
2024/04/12 00:49:30;;;;;;;12.95;7.50;;;;;;;;;;5414177;26;20056;-59
2024/04/12 00:51:56;;;;;;;12.82;7.50;;;;;;;;;;5414670;26;19995;-58
2024/04/12 00:54:24;;;;;;;12.50;7.30;;;;;;;;;;5414210;26;20010;-58
2024/04/12 00:56:50;;;;;;;13.07;7.90;;;;;;;;;;5414557;26;20336;-58
2024/04/12 00:59:16;;;;;;;12.70;7.35;;;;;;;;;;5414190;26;20041;-57
2024/04/12 01:01:42;;;;;;;13.60;9.25;;;;;;;;;;5412887;26;19988;-57
2024/04/12 01:04:08;;;;;;;12.50;7.30;;;;;;;;;;5413678;26;20638;-59
2024/04/12 01:06:34;;;;;;;13.23;7.95;;;;;;;;;;5413931;26;20056;-56
2024/04/12 01:09:13;;;;;;;12.55;7.32;;;;;;;;;;5414109;26;19999;-58
2024/04/12 01:11:39;;;;;;;;;;;;;;;;;;5415205;26;20071;-58
2024/04/12 01:14:05;;;;;;;12.05;7.00;;;;;;;;;;5413883;26;19933;-58
2024/04/12 01:16:31;;;;;;;12.00;7.00;;;;;;;;;;5382664;26;19999;-59
2024/04/12 01:18:57;;;;;;;11.55;6.78;;;;;;;;;;5413655;26;19992;-57
2024/04/12 01:21:24;;;;;;;12.45;7.30;;;;;;;;;;5414006;26;20213;-58
2024/04/12 01:23:53;;;;;;;12.63;7.38;;;;;;;;;;5413655;26;20064;-62
2024/04/12 01:26:20;;;;;;;12.20;7.07;;;;;;;;;;5382254;26;19988;-59
2024/04/12 01:28:48;;;;;;;11.95;7.00;;;;;;;;;;5414040;26;19991;-56
2024/04/12 01:31:17;;;;;;;12.50;7.70;;;;;;;;;;5413901;26;20027;-58
2024/04/12 01:33:44;;;;;;;12.25;7.18;;;;;;;;;;5413283;26;20399;-57
2024/04/12 01:36:17;;;;;;;12.30;7.10;;;;;;;;;;5414036;26;20010;-56
2024/04/12 01:38:43;;;;;;;11.93;7.00;;;;;;;;;;5413858;26;19996;-59
2024/04/12 01:41:10;;;;;;;12.88;8.95;;;;;;;;;;5413985;26;20469;-59
2024/04/12 01:43:37;;;;;;;12.10;7.00;;;;;;;;;;5413233;26;19995;-59
2024/04/12 01:46:04;;;;;;;11.93;7.00;;;;;;;;;;5382206;26;20007;-54
2024/04/12 01:48:33;;;;;;;11.40;6.70;;;;;;;;;;5413605;26;20007;-58
2024/04/12 01:51:02;;;;;;;11.45;6.70;;;;;;;;;;5413803;26;19991;-59
2024/04/12 01:53:28;;;;;;;11.73;6.88;;;;;;;;;;5413385;26;20007;-55
2024/04/12 01:55:55;;;;;;;11.70;6.80;;;;;;;;;;5413202;26;19995;-59
2024/04/12 01:58:21;;;;;;;11.93;6.93;;;;;;;;;;5382138;26;20106;-58
2024/04/12 02:00:49;;;;;;;12.02;7.00;;;;;;;;;;5382144;26;20499;-58
2024/04/12 02:03:15;;;;;;;11.60;6.80;;;;;;;;;;5413274;26;19995;-58
2024/04/12 02:05:44;;;;;;;11.95;7.00;;;;;;;;;;5413691;26;20006;-60
2024/04/12 02:08:19;;;;;;;11.95;7.00;;;;;;;;;;5413954;26;20019;-60
2024/04/12 02:10:48;;;;;;;12.60;7.30;;;;;;;;;;5413866;26;20031;-59
2024/04/12 02:13:17;;;;;;;12.30;7.20;;;;;;;;;;5416785;26;20007;-59
2024/04/12 02:15:46;;;;;;;11.90;6.90;;;;;;;;;;5385511;26;20011;-59
2024/04/12 02:18:19;;;;;;;11.60;7.07;;;;;;;;;;5416463;26;20035;-58
2024/04/12 02:20:46;;;;;;;11.10;6.50;;;;;;;;;;5416821;26;19996;-59
2024/04/12 02:23:18;;;;;;;11.75;6.90;;;;;;;;;;5416220;26;20011;-59
2024/04/12 02:25:44;;;;;;;11.90;6.95;;;;;;;;;;5416011;26;20011;-58
2024/04/12 02:28:11;;;;;;;12.55;7.30;;;;;;;;;;5416349;26;20665;-57
2024/04/12 02:30:41;;;;;;;12.55;7.32;;;;;;;;;;5416382;26;20000;-59
2024/04/12 02:33:08;;;;;;;12.00;7.00;;;;;;;;;;5415931;26;19995;-57
2024/04/12 02:35:35;;;;;;;12.70;7.57;;;;;;;;;;5416757;26;19999;-58
2024/04/12 02:38:01;;;;;;;12.30;7.20;;;;;;;;;;5385488;26;20006;-59
2024/04/12 02:40:27;;;;;;;12.05;7.05;;;;;;;;;;5415971;26;20003;-59
2024/04/12 02:42:53;;;;;;;12.80;7.47;;;;;;;;;;5416067;26;20068;-59
2024/04/12 02:45:19;;;;;;;12.90;7.50;;;;;;;;;;5416041;26;20003;-58
2024/04/12 02:47:45;;;;;;;12.23;7.07;;;;;;;;;;5416273;26;20006;-58
2024/04/12 02:50:15;;;;;;;12.48;7.30;;;;;;;;;;5384711;26;19995;-60
2024/04/12 02:52:41;;;;;;;12.88;7.47;;;;;;;;;;5416160;26;20033;-58
2024/04/12 02:55:13;;;;;;;12.70;7.40;;;;;;;;;;5415754;26;19995;-59
2024/04/12 02:57:42;;;;;;;12.48;7.28;;;;;;;;;;5415757;26;20017;-57
2024/04/12 03:00:21;;;;;;;12.73;7.40;;;;;;;;;;5416180;26;20337;-59
2024/04/12 03:02:48;;;;;;;12.27;7.20;;;;;;;;;;5384627;26;20368;-59
2024/04/12 03:05:13;;;;;;;12.45;7.28;;;;;;;;;;5416464;26;20018;-59
2024/04/12 03:07:41;;;;;;;13.65;9.05;;;;;;;;;;5385062;26;20003;-58
2024/04/12 03:10:07;;;;;;;12.88;7.55;;;;;;;;;;5416035;26;20023;-59
2024/04/12 03:12:36;;;;;;;12.80;7.50;;;;;;;;;;5415651;26;20024;-57
2024/04/12 03:15:04;;;;;;;13.10;7.60;;;;;;;;;;5415344;26;20000;-58
2024/04/12 03:17:32;;;;;;;13.70;8.25;;;;;;;;;;5384434;26;20009;-60
2024/04/12 03:19:58;;;;;;;12.95;7.60;;;;;;;;;;5415875;26;20068;-60
2024/04/12 03:22:24;;;;;;;13.00;7.65;;;;;;;;;;5415692;26;19998;-57
2024/04/12 03:24:50;;;;;;;13.00;7.60;;;;;;;;;;5415031;26;19995;-58
2024/04/12 03:27:16;;;;;;;13.40;7.85;;;;;;;;;;5415081;26;20098;-59
2024/04/12 03:29:42;;;;;;;13.30;7.85;;;;;;;;;;5384321;26;20011;-58
2024/04/12 03:32:12;;;;;;;13.02;7.60;;;;;;;;;;5415162;26;19992;-57
2024/04/12 03:34:38;;;;;;;13.25;7.80;;;;;;;;;;5415031;26;20010;-56
2024/04/12 03:37:23;;;;;;;13.05;7.63;;;;;;;;;;5415417;26;19999;-56
2024/04/12 03:40:00;;;;;;;12.30;7.20;;;;;;;;;;5384223;26;20006;-55
2024/04/12 03:42:28;;;;;;;25.23;9.63;;;;;;;;;;5415741;26;20027;-59
2024/04/12 03:44:58;;;;;;;13.40;7.70;;;;;;;;;;5383705;26;20007;-59
2024/04/12 03:47:27;;;;;;;12.93;7.53;;;;;;;;;;5414035;26;19999;-57
2024/04/12 03:49:53;;;;;;;12.70;8.00;;;;;;;;;;5414680;26;20006;-52
2024/04/12 03:52:20;;;;;;;12.98;7.93;;;;;;;;;;5414861;26;20407;-56
2024/04/12 03:54:46;;;;;;;12.75;7.50;;;;;;;;;;5414279;26;20006;-54
2024/04/12 03:57:13;;;;;;;13.13;7.90;;;;;;;;;;5383290;26;20493;-54
2024/04/12 03:59:43;;;;;;;13.57;9.25;;;;;;;;;;5414986;26;20000;-52
2024/04/12 04:02:09;;;;;;;12.95;7.82;;;;;;;;;;5384043;26;19999;-56
2024/04/12 04:04:44;;;;;;;12.90;7.55;;;;;;;;;;5383959;26;20003;-57
2024/04/12 04:07:14;;;;;;;12.70;7.40;;;;;;;;;;5415046;26;19999;-60
2024/04/12 04:09:42;;;;;;;12.55;7.50;;;;;;;;;;5414610;26;20014;-57
2024/04/12 04:12:10;;;;;;;13.07;7.88;;;;;;;;;;5414797;26;19995;-52
2024/04/12 04:14:36;;;;;;;12.70;7.45;;;;;;;;;;5414444;26;20376;-53
2024/04/12 04:17:02;;;;;;;12.93;7.43;;;;;;;;;;5414629;26;20011;-54
2024/04/12 04:19:30;;;;;;;12.75;7.55;;;;;;;;;;5414638;26;20003;-55
2024/04/12 04:22:04;;;;;;;12.65;7.40;;;;;;;;;;5414669;26;19992;-56
2024/04/12 04:24:39;;;;;;;12.85;7.50;;;;;;;;;;5414498;26;20445;-58
2024/04/12 04:27:08;;;;;;;12.95;7.60;;;;;;;;;;5383794;26;19996;-55
2024/04/12 04:29:35;;;;;;;12.82;7.45;;;;;;;;;;5414835;26;19992;-55
2024/04/12 04:32:01;;;;;;;13.50;8.38;;;;;;;;;;5383146;26;20320;-57
2024/04/12 04:34:27;;;;;;;13.38;8.07;;;;;;;;;;5413938;26;20011;-57
2024/04/12 04:36:56;;;;;;;13.38;8.40;;;;;;;;;;5413990;26;19995;-56
2024/04/12 04:39:23;;;;;;;13.38;8.20;;;;;;;;;;5469600;20;20042;-61
2024/04/12 04:41:53;;;;;;;13.43;8.30;;;;;;;;;;5494702;26;20404;-61
2024/04/12 04:44:21;;;;;;;13.48;8.30;;;;;;;;;;5491754;26;19998;-61
2024/04/12 04:46:49;;;;;;;13.48;8.25;;;;;;;;;;5493250;26;19998;-62
2024/04/12 04:49:18;;;;;;;13.45;8.25;;;;;;;;;;5504365;26;20016;-62
2024/04/12 04:51:48;;;;;;;13.55;8.60;;;;;;;;;;5531546;25;20009;-63
2024/04/12 04:54:15;;;;;;;14.10;8.60;;;;;;;;;;5531222;25;19997;-63
2024/04/12 04:56:41;;;;;;;13.55;8.40;;;;;;;;;;5531512;25;20005;-63
2024/04/12 04:59:16;;;;;;;13.35;8.00;;;;;;;;;;5529994;25;20003;-63
2024/04/12 05:01:52;;;;;;;13.48;8.30;;;;;;;;;;5531470;25;20005;-63
2024/04/12 05:04:20;;;;;;;13.43;8.30;;;;;;;;;;5531276;25;19989;-63
2024/04/12 05:06:47;;;;;;;13.70;8.73;;;;;;;;;;5531548;25;19990;-63
2024/04/12 05:09:18;;;;;;;13.77;8.48;;;;;;;;;;5530437;25;20005;-62
2024/04/12 05:11:44;;;;;;;13.60;8.35;;;;;;;;;;5530678;25;20033;-63
2024/04/12 05:14:46;;;;;;;14.32;9.13;;;;;;;;;;5527912;25;19993;-63
2024/04/12 05:17:05;;;;;;;13.35;8.00;;;;;;;;;;5530627;25;19993;-64
2024/04/12 05:19:40;;;;;;;13.70;8.43;;;;;;;;;;5530567;25;19994;-66
2024/04/12 05:22:07;;;;;;;13.90;8.35;;;;;;;;;;5531357;25;19997;-64
2024/04/12 05:24:35;;;;;;;14.35;9.15;;;;;;;;;;5528344;25;20354;-64
2024/04/12 05:27:04;;;;;;;12.95;7.70;;;;;;;;;;5530412;25;19989;-64
2024/04/12 05:29:30;;;;;;;13.15;7.60;;;;;;;;;;5530736;25;19994;-62
2024/04/12 05:31:56;;;;;;;13.82;8.00;;;;;;;;;;5528845;25;20004;-64
2024/04/12 05:34:22;;;;;;;12.73;7.40;;;;;;;;;;5528446;25;19996;-64
2024/04/12 05:36:48;;;;;;;13.00;7.63;;;;;;;;;;5529717;25;20004;-63
2024/04/12 05:39:19;;;;;;;12.95;7.53;;;;;;;;;;5529080;25;19990;-64
2024/04/12 05:41:45;;;;;;;12.77;7.47;;;;;;;;;;5529804;25;19986;-63
2024/04/12 05:44:14;;;;;;;12.77;7.47;;;;;;;;;;5513554;25;20013;-64
2024/04/12 05:46:41;;;;;;;23.30;13.90;;;;;;;;;;5522163;26;20053;-63
2024/04/12 05:49:11;;;;;;;14.18;8.10;;;;;;;;;;5491768;25;19998;-63
2024/04/12 05:51:41;;;;;;;13.65;8.15;;;;;;;;;;5500613;26;20012;-63
2024/04/12 05:54:10;;;;;;;14.82;8.32;;;;;;;;;;5527769;25;19998;-64
2024/04/12 05:56:39;;;;;;;14.20;8.02;;;;;;;;;;5521469;25;20004;-66
2024/04/12 05:59:10;;;;;;;13.93;8.77;;;;;;;;;;5517535;25;19990;-59
2024/04/12 06:01:43;;;;;;;15.85;8.82;;;;;;;;;;5489025;25;20002;-58
2024/04/12 06:04:10;;;;;;;13.90;8.55;;;;;;;;;;5482510;26;20001;-58
2024/04/12 06:06:36;;;;;;;14.13;9.30;;;;;;;;;;5482619;26;19991;-58
2024/04/12 06:09:05;;;;;;;16.50;9.80;;;;;;;;;;5482418;26;20010;-58
2024/04/12 06:11:31;;;;;;;13.43;8.18;;;;;;;;;;5482520;26;20456;-58
2024/04/12 06:14:01;;;;;;;14.52;8.60;;;;;;;;;;5482287;26;20425;-59
2024/04/12 06:16:27;;;;;;;12.95;7.50;;;;;;;;;;5482707;26;20009;-59
2024/04/12 06:18:54;;;;;;;12.45;7.28;;;;;;;;;;5514351;26;20471;-58
2024/04/12 06:21:23;;;;;;;14.35;8.80;;;;;;;;;;5518652;25;20503;-59
2024/04/12 06:23:54;;;;;;;16.33;9.82;;;;;;;;;;5518418;25;20006;-59
2024/04/12 06:26:22;;;;;;;14.25;9.05;;;;;;;;;;5517562;25;20019;-58
2024/04/12 06:28:48;;;;;;;13.87;8.47;;;;;;;;;;5519968;25;20008;-57
2024/04/12 06:31:19;;;;;;;13.60;8.40;;;;;;;;;;5516834;25;19994;-59
2024/04/12 06:33:46;;;;;;;12.98;7.63;;;;;;;;;;5517715;25;19989;-59
2024/04/12 06:36:13;;;;;;;13.50;8.30;;;;;;;;;;5518332;25;20542;-59
2024/04/12 06:38:39;;;;;;;13.20;7.72;;;;;;;;;;5517975;25;19999;-58
2024/04/12 06:41:10;;;;;;;13.98;9.18;;;;;;;;;;5519238;25;20000;-60
2024/04/12 06:43:43;;;;;;;12.80;7.57;;;;;;;;;;5519308;25;19989;-60
2024/04/12 06:46:09;;;;;;;12.80;7.55;;;;;;;;;;5482659;26;20571;-58
2024/04/12 06:48:40;;;;;;;15.50;8.98;;;;;;;;;;5482379;26;20009;-56
2024/04/12 06:51:11;;;;;;;;;;;;;;;;;;5483022;26;20062;-60
2024/04/12 06:53:41;;;;;;;14.00;8.10;;;;;;;;;;5510831;25;19991;-58
2024/04/12 06:56:12;;;;;;;15.75;9.98;;;;;;;;;;5482247;26;19994;-58
2024/04/12 06:58:38;;;;;;;13.48;8.32;;;;;;;;;;5483322;26;19998;-58
2024/04/12 07:01:05;;;;;;;13.90;9.32;;;;;;;;;;5485615;26;20006;-58
2024/04/12 07:03:34;;;;;;;15.10;10.18;;;;;;;;;;5483910;26;20364;-58
2024/04/12 07:06:01;;;;;;;13.05;7.63;;;;;;;;;;5485957;26;19994;-56
2024/04/12 07:08:28;;;;;;;13.13;7.78;;;;;;;;;;5485841;26;20008;-57
2024/04/12 07:10:54;;;;;;;15.00;9.05;;;;;;;;;;5485881;26;19990;-57
2024/04/12 07:13:27;;;;;;;13.18;7.78;;;;;;;;;;5485456;26;20017;-58
2024/04/12 07:15:56;;;;;;;12.73;7.47;;;;;;;;;;5485993;26;20074;-58
2024/04/12 07:18:23;;;;;;;14.20;9.10;;;;;;;;;;5495118;26;20097;-58
2024/04/12 07:20:49;;;;;;;12.60;7.30;;;;;;;;;;5522371;25;20495;-58
2024/04/12 07:23:16;;;;;;;17.08;9.05;;;;;;;;;;5522489;25;19998;-58
2024/04/12 07:25:45;;;;;;;12.85;7.53;;;;;;;;;;5521436;25;19993;-57
2024/04/12 07:28:13;;;;;;;12.90;7.68;;;;;;;;;;5522773;25;20076;-59
2024/04/12 07:30:41;;;;;;;12.85;7.50;;;;;;;;;;5521713;25;20008;-57
2024/04/12 07:33:11;;;;;;;12.93;7.57;;;;;;;;;;5522297;25;20005;-59
2024/04/12 07:35:39;;;;;;;12.57;7.45;;;;;;;;;;5520000;25;20443;-58
2024/04/12 07:38:07;;;;;;;13.50;8.30;;;;;;;;;;5521432;25;20001;-58
2024/04/12 07:40:39;;;;;;;13.40;8.07;;;;;;;;;;5521612;25;19993;-59
2024/04/12 07:43:09;;;;;;;12.70;7.60;;;;;;;;;;5521686;25;19993;-58
2024/04/12 07:45:38;;;;;;;14.65;8.63;;;;;;;;;;5521937;25;20001;-57
2024/04/12 07:50:47;;;;;;;13.10;7.60;;;;;;;;;;5522136;25;19997;-58
2024/04/12 07:53:26;;;;;;;13.02;8.05;;;;;;;;;;5521669;25;20081;-58
2024/04/12 07:55:58;;;;;;;13.65;8.50;;;;;;;;;;5522349;25;20065;-58
2024/04/12 07:58:27;;;;;;;13.18;7.78;;;;;;;;;;5521558;25;19993;-57
2024/04/12 08:01:09;;;;;;;13.30;8.00;;;;;;;;;;5521735;25;20404;-59
2024/04/12 08:03:36;;;;;;;14.90;9.30;;;;;;;;;;5521280;25;19998;-59
2024/04/12 08:06:05;;;;;;;13.70;7.68;;;;;;;;;;5521607;25;20003;-58
2024/04/12 08:08:32;;;;;;;12.63;7.40;;;;;;;;;;5521916;25;20459;-58
2024/04/12 08:11:10;;;;;;;12.43;7.60;;;;;;;;;;5521543;25;20044;-58
2024/04/12 08:13:43;;;;;;;14.30;9.60;;;;;;;;;;5521447;25;20007;-59
2024/04/12 08:16:14;;;;;;;12.18;7.10;;;;;;;;;;5522558;26;19998;-58
2024/04/12 08:18:43;;;;;;;13.15;9.07;;;;;;;;;;5521291;25;20001;-58
2024/04/12 08:21:12;;;;;;;;;;;;;;;;;;5522567;25;20062;-58
2024/04/12 08:23:43;;;;;;;12.43;7.22;;;;;;;;;;5521303;26;19950;-59
2024/04/12 08:26:10;;;;;;;14.48;7.70;;;;;;;;;;5521343;25;20005;-59
2024/04/12 08:28:43;;;;;;;13.55;7.45;;;;;;;;;;5521298;25;19994;-59
2024/04/12 08:31:13;;;;;;;12.35;7.20;;;;;;;;;;5521483;25;20022;-58
2024/04/12 08:33:45;;;;;;;14.63;9.10;;;;;;;;;;5521947;25;19994;-58
2024/04/12 08:36:14;;;;;;;12.77;7.45;;;;;;;;;;5524486;25;20035;-59
2024/04/12 08:39:11;;;;;;;16.77;10.43;;;;;;;;;;5524961;25;20661;-59
2024/04/12 08:41:38;;;;;;;15.20;8.85;;;;;;;;;;5521468;25;20001;-59
2024/04/12 08:44:09;;;;;;;17.20;11.82;;;;;;;;;;5520939;25;20008;-57
2024/04/12 08:46:36;;;;;;;14.85;9.95;;;;;;;;;;5519758;26;20001;-59
2024/04/12 08:49:03;;;;;;;12.80;7.40;;;;;;;;;;5521817;25;19997;-57
2024/04/12 08:51:33;;;;;;;12.60;7.38;;;;;;;;;;5521686;25;20332;-58
2024/04/12 08:54:05;;;;;;;12.73;7.40;;;;;;;;;;5520770;25;20037;-60
2024/04/12 08:56:31;;;;;;;12.95;7.68;;;;;;;;;;5520795;25;20012;-58
2024/04/12 08:59:00;;;;;;;13.00;7.93;;;;;;;;;;5521665;25;19994;-60
2024/04/12 09:01:31;;;;;;;13.88;8.60;;;;;;;;;;5502382;25;20009;-61
2024/04/12 09:04:03;;;;;;;13.68;8.98;;;;;;;;;;5487463;26;19997;-56
2024/04/12 09:06:34;;;;;;;12.93;7.68;;;;;;;;;;5520980;25;19989;-59
2024/04/12 09:09:00;;;;;;;13.40;8.45;;;;;;;;;;5520830;26;19997;-57
2024/04/12 09:11:27;;;;;;;14.10;9.05;;;;;;;;;;5520831;25;20352;-59
2024/04/12 09:13:53;;;;;;;12.95;7.55;;;;;;;;;;5520870;25;19985;-58
2024/04/12 09:16:19;;;;;;;12.80;7.47;;;;;;;;;;5520394;25;20069;-58
2024/04/12 09:18:51;;;;;;;14.30;9.23;;;;;;;;;;5521445;25;20029;-57
2024/04/12 09:21:35;;;;;;;14.35;8.90;;;;;;;;;;5519685;26;20468;-58
2024/04/12 09:24:09;;;;;;;12.90;7.70;;;;;;;;;;5520228;25;20110;-55
2024/04/12 09:26:55;;;;;;;14.80;8.57;;;;;;;;;;5520479;25;20021;-60
2024/04/12 09:29:27;;;;;;;21.67;11.60;;;;;;;;;;5520028;26;20022;-61
2024/04/12 09:34:55;;;;;;;13.02;7.70;;;;;;;;;;5520506;26;20012;-58
2024/04/12 09:42:44;;;;;;;13.75;8.40;;;;;;;;;;5520387;25;20010;-56
2024/04/12 09:45:16;;;;;;;13.10;7.95;;;;;;;;;;5519437;25;20001;-60
2024/04/12 10:37:44;;;;;;;13.20;7.90;;;;;;;;;;5490883;26;20050;-60
2024/04/12 10:40:11;;;;;;;13.00;7.95;;;;;;;;;;5487915;26;19991;-60
2024/04/12 10:42:47;;;;;;;14.35;9.20;;;;;;;;;;5485304;26;20095;-57
2024/04/12 10:45:17;;;;;;;13.07;7.60;;;;;;;;;;5484661;26;20016;-56
2024/04/12 10:47:46;;;;;;;17.83;9.35;;;;;;;;;;5485843;26;19994;-58
2024/04/12 10:50:13;;;;;;;15.73;10.90;;;;;;;;;;5485638;26;20411;-58
2024/04/12 10:52:40;;;;;;;13.50;8.38;;;;;;;;;;5484622;26;20067;-58
2024/04/12 10:55:09;;;;;;;13.95;9.40;;;;;;;;;;5484329;26;20001;-58
2024/04/12 10:57:42;;;;;;;13.88;8.15;;;;;;;;;;5485294;26;20014;-56
2024/04/12 11:00:14;;;;;;;12.95;7.45;;;;;;;;;;5485116;26;20372;-58
2024/04/12 11:02:44;;;;;;;12.32;7.20;;;;;;;;;;5482810;26;19998;-58
2024/04/12 11:07:49;;;;;;;13.38;8.00;;;;;;;;;;5486512;26;19994;-60
2024/04/12 11:10:24;;;;;;;15.18;9.25;;;;;;;;;;5505895;26;20096;-62
2024/04/12 11:13:06;;;;;;;13.52;8.43;;;;;;;;;;5506455;25;20031;-59
2024/04/12 11:31:52;;;;;;;14.93;9.82;;;;;;;;;;5519163;26;20074;-59
2024/04/12 11:34:29;;;;;;;15.32;9.68;;;;;;;;;;5519414;25;19997;-57
2024/04/12 11:36:55;;;;;;;15.95;9.20;;;;;;;;;;5519323;26;20114;-59
2024/04/12 11:39:25;;;;;;;13.48;8.45;;;;;;;;;;5518739;26;19997;-58
2024/04/12 11:42:00;;;;;;;13.45;8.32;;;;;;;;;;5519392;25;19998;-59
2024/04/12 11:44:26;;;;;;;13.60;8.60;;;;;;;;;;5511797;25;20008;-58
2024/04/12 11:47:02;;;;;;;13.68;8.90;;;;;;;;;;5483511;26;20005;-61
2024/04/12 11:49:28;;;;;;;15.18;10.00;;;;;;;;;;5483544;26;19995;-57
2024/04/12 11:52:01;;;;;;;13.73;9.27;;;;;;;;;;5483091;26;20116;-59
2024/04/12 11:54:29;;;;;;;15.80;11.63;;;;;;;;;;5482974;26;20004;-58
2024/04/12 11:56:57;;;;;;;15.07;10.35;;;;;;;;;;5480778;26;20098;-59
2024/04/12 11:59:27;;;;;;;14.30;10.00;;;;;;;;;;5483764;26;19994;-58
2024/04/12 12:01:54;;;;;;;13.60;8.60;;;;;;;;;;5483251;26;19998;-58
2024/04/12 12:04:22;;;;;;;14.05;9.05;;;;;;;;;;5483135;26;20002;-58
2024/04/12 12:06:48;;;;;;;14.20;8.20;;;;;;;;;;5483164;26;20001;-59
2024/04/12 12:09:14;;;;;;;14.95;10.00;;;;;;;;;;5480850;26;19994;-56
2024/04/12 12:11:43;;;;;;;15.55;9.05;;;;;;;;;;5482500;26;20028;-59
2024/04/12 12:14:10;;;;;;;17.83;10.60;;;;;;;;;;5483191;26;20026;-56
2024/04/12 12:16:36;;;;;;;15.10;9.95;;;;;;;;;;5482766;26;20468;-58
2024/04/12 12:19:06;;;;;;;16.90;8.75;;;;;;;;;;5482563;26;20006;-60
2024/04/12 12:21:32;;;;;;;13.57;8.50;;;;;;;;;;5482433;26;20022;-55
2024/04/12 12:23:59;;;;;;;17.13;10.68;;;;;;;;;;5482323;26;19994;-57
2024/04/12 12:26:25;;;;;;;14.55;11.10;;;;;;;;;;5482696;26;20013;-61
2024/04/12 12:28:51;;;;;;;13.50;8.38;;;;;;;;;;5482858;26;20000;-60
2024/04/12 12:31:18;;;;;;;13.73;8.85;;;;;;;;;;5483207;26;19989;-58
2024/04/12 12:33:45;;;;;;;14.13;9.20;;;;;;;;;;5482901;26;20005;-57
2024/04/12 12:36:11;;;;;;;14.30;9.77;;;;;;;;;;5483687;26;19990;-70
2024/04/12 12:38:41;;;;;;;13.35;8.13;;;;;;;;;;5483267;26;20506;-62
2024/04/12 12:41:10;;;;;;;13.80;9.30;;;;;;;;;;5482929;26;20286;-64
2024/04/12 12:43:40;;;;;;;13.85;9.65;;;;;;;;;;5482271;26;20008;-64
2024/04/12 12:46:07;;;;;;;14.48;10.20;;;;;;;;;;5483044;26;19990;-62
2024/04/12 12:48:33;;;;;;;17.33;12.05;;;;;;;;;;5482001;26;19993;-55
2024/04/12 12:50:59;;;;;;;14.00;9.93;;;;;;;;;;5481629;26;20010;-55
2024/04/12 12:53:27;;;;;;;14.57;10.40;;;;;;;;;;5480240;26;20002;-56
2024/04/12 12:55:55;;;;;;;16.85;11.27;;;;;;;;;;5480058;26;20453;-57
2024/04/12 12:58:25;;;;;;;13.93;9.68;;;;;;;;;;5481865;26;19986;-53
2024/04/12 13:00:51;;;;;;;14.38;10.05;;;;;;;;;;5481870;26;20091;-57
2024/04/12 13:03:17;;;;;;;15.85;11.52;;;;;;;;;;5480339;26;19994;-57
2024/04/12 13:05:48;;;;;;;14.00;9.60;;;;;;;;;;5479433;26;20016;-55
2024/04/12 13:08:18;;;;;;;14.55;10.30;;;;;;;;;;5483190;26;20026;-57
2024/04/12 13:10:46;;;;;;;13.95;9.57;;;;;;;;;;5483062;26;20066;-56
2024/04/12 13:13:17;;;;;;;14.30;10.38;;;;;;;;;;5480956;26;19990;-57
2024/04/12 13:15:44;;;;;;;14.05;9.70;;;;;;;;;;5483297;26;19994;-60
2024/04/12 13:18:10;;;;;;;14.20;10.20;;;;;;;;;;5482201;26;19990;-55
2024/04/12 13:20:36;;;;;;;14.95;10.45;;;;;;;;;;5481166;26;20029;-58
2024/04/12 13:23:03;;;;;;;17.50;12.30;;;;;;;;;;5479595;26;20009;-56
2024/04/12 13:25:29;;;;;;;14.02;9.88;;;;;;;;;;5481804;26;20447;-59
2024/04/12 13:27:55;;;;;;;15.65;10.88;;;;;;;;;;5480544;26;20002;-57
2024/04/12 13:30:21;;;;;;;16.30;11.60;;;;;;;;;;5480717;26;20017;-52
2024/04/12 13:32:58;;;;;;;15.77;10.55;;;;;;;;;;5480778;26;20024;-54
2024/04/12 13:35:24;;;;;;;15.38;11.57;;;;;;;;;;5479778;26;20332;-59
2024/04/12 13:37:52;;;;;;;14.48;10.25;;;;;;;;;;5479603;26;20066;-56
2024/04/12 13:40:18;;;;;;;14.77;10.48;;;;;;;;;;5478905;26;20087;-57
2024/04/12 13:42:47;;;;;;;18.20;12.30;;;;;;;;;;5478789;26;20009;-58
2024/04/12 13:50:54;;;;;;;15.50;10.68;;;;;;;;;;5482090;26;20043;-54
2024/04/12 13:53:31;;;;;;;14.30;10.60;;;;;;;;;;5481036;26;19998;-56
2024/04/12 13:56:16;;;;;;;14.25;10.57;;;;;;;;;;5118698;25;9999712;-60
2024/04/12 13:58:42;;;;;;;14.80;10.57;;;;;;;;;;5495075;26;20002;-60
2024/04/12 14:01:08;;;;;;;14.60;10.80;;;;;;;;;;5492875;25;19994;-58
2024/04/12 14:03:37;;;;;;;14.35;10.68;;;;;;;;;;5479641;26;20005;-59
2024/04/12 14:06:04;;;;;;;14.60;11.10;;;;;;;;;;5509518;26;20083;-54
2024/04/12 14:08:30;;;;;;;15.65;12.15;;;;;;;;;;5517678;26;20093;-58
2024/04/12 14:10:57;;;;;;;14.50;11.10;;;;;;;;;;5518386;25;20041;-57
2024/04/12 14:13:25;;;;;;;14.30;10.60;;;;;;;;;;5503145;25;19998;-58
2024/04/12 14:15:51;;;;;;;14.70;10.98;;;;;;;;;;5481441;26;20001;-58
2024/04/12 14:18:17;;;;;;;14.90;11.75;;;;;;;;;;5480981;26;20041;-57
2024/04/12 14:20:44;;;;;;;15.52;12.30;;;;;;;;;;5480207;26;20008;-54
2024/04/12 14:23:10;;;;;;;15.90;12.38;;;;;;;;;;5480982;26;20431;-61
2024/04/12 14:25:36;;;;;;;15.00;11.88;;;;;;;;;;5480480;26;19998;-57
2024/04/12 14:28:02;;;;;;;14.55;11.20;;;;;;;;;;5480952;26;20013;-57
2024/04/12 14:30:28;;;;;;;14.60;11.50;;;;;;;;;;5494039;26;20078;-60
2024/04/12 14:32:54;;;;;;;15.10;12.20;;;;;;;;;;5517402;26;20325;-56
2024/04/12 14:35:22;;;;;;;14.85;11.68;;;;;;;;;;5518309;26;19998;-60
2024/04/12 14:37:48;;;;;;;15.10;11.97;;;;;;;;;;5518068;25;20431;-60
2024/04/12 14:40:19;;;;;;;14.48;11.10;;;;;;;;;;5517602;25;20012;-58
2024/04/12 14:42:49;;;;;;;14.68;11.50;;;;;;;;;;5516102;26;20447;-57
2024/04/12 14:45:15;;;;;;;16.10;11.70;;;;;;;;;;5520811;25;19994;-58
2024/04/12 14:47:41;;;;;;;14.43;11.18;;;;;;;;;;5520797;25;20041;-61
2024/04/12 14:50:10;;;;;;;15.60;12.40;;;;;;;;;;5518574;25;20403;-58
2024/04/12 14:52:43;;;;;;;14.80;11.70;;;;;;;;;;5516534;25;20012;-59
2024/04/12 14:55:12;;;;;;;14.70;11.50;;;;;;;;;;5517139;25;20459;-55
2024/04/12 14:57:47;;;;;;;;;;;;;;;;;;5517591;25;20005;-58
2024/04/12 15:00:18;;;;;;;14.50;11.02;;;;;;;;;;5518188;26;19942;-56
2024/04/12 15:49:21;;;;;;;14.15;10.25;;;;;;;;;;5516833;26;20077;-59
2024/04/12 15:51:51;;;;;;;14.25;10.60;;;;;;;;;;5512950;26;20757;-60
2024/04/12 15:54:17;;;;;;;14.95;11.35;;;;;;;;;;5516679;25;20470;-56
2024/04/12 16:10:48;;;;;;;14.30;10.68;;;;;;;;;;5518026;26;20004;-66
2024/04/12 16:13:14;;;;;;;14.15;10.40;;;;;;;;;;5518086;25;20016;-66
2024/04/12 16:15:40;;;;;;;14.70;10.80;;;;;;;;;;5518064;25;20002;-69
2024/04/12 16:18:06;;;;;;;14.32;10.85;;;;;;;;;;5518974;25;19993;-67
2024/04/12 16:20:34;;;;;;;14.50;10.60;;;;;;;;;;5520037;25;20001;-67
2024/04/12 16:23:00;;;;;;;14.63;10.90;;;;;;;;;;5521218;25;20011;-66
2024/04/12 16:25:26;;;;;;;14.68;10.68;;;;;;;;;;5134629;25;9999817;-67
2024/04/12 16:27:54;;;;;;;14.20;10.20;;;;;;;;;;5517406;25;20002;-67
2024/04/12 16:30:20;;;;;;;14.60;10.85;;;;;;;;;;5517265;25;20404;-67
2024/04/12 16:32:46;;;;;;;14.23;10.50;;;;;;;;;;5518199;25;19990;-68
2024/04/12 16:35:13;;;;;;;14.82;11.13;;;;;;;;;;5517406;25;20081;-67
2024/04/12 16:37:39;;;;;;;14.00;9.90;;;;;;;;;;5517408;25;19993;-68
2024/04/12 16:40:05;;;;;;;14.40;10.40;;;;;;;;;;5515841;25;19989;-68
2024/04/12 16:42:31;;;;;;;16.25;11.15;;;;;;;;;;5517978;25;20010;-67
2024/04/12 16:44:57;;;;;;;14.13;10.27;;;;;;;;;;5517033;25;19994;-69
2024/04/12 16:47:24;;;;;;;14.40;10.90;;;;;;;;;;5517971;25;20016;-68
2024/04/12 16:49:50;;;;;;;15.10;11.13;;;;;;;;;;5516500;26;20012;-67
2024/04/12 16:52:17;;;;;;;14.00;9.98;;;;;;;;;;5514230;26;19997;-67
2024/04/12 16:54:43;;;;;;;14.15;10.35;;;;;;;;;;5516805;25;20002;-68
2024/04/12 16:57:11;;;;;;;15.82;12.80;;;;;;;;;;5516938;25;20444;-68
2024/04/12 16:59:38;;;;;;;14.50;10.70;;;;;;;;;;5516861;25;19997;-68
2024/04/12 17:02:04;;;;;;;14.23;10.55;;;;;;;;;;5491082;26;19998;-67
2024/04/12 17:04:30;;;;;;;14.27;10.63;;;;;;;;;;5480000;26;20012;-66